Time;durP1;ratioP1;P1;durP2;ratioP2;P2;SDS_P1;SDS_P2;PMS_P1;PMS_P2;Temp;Humidity;BMP_temperature;BMP_pressure;BME280_temperature;BME280_humidity;BME280_pressure;Samples;Min_cycle;Max_cycle;Signal;HPM_P1;HPM_P2
2023/06/03 00:01:33;;;;;;;6.90;5.45;;;10.50;99.90;;;;;;5052755;28;20037;-72
2023/06/03 00:03:59;;;;;;;6.75;5.00;;;10.50;99.90;;;;;;5051726;28;20025;-72
2023/06/03 00:06:25;;;;;;;8.82;5.60;;;10.50;99.90;;;;;;5052573;28;20124;-72
2023/06/03 00:08:51;;;;;;;6.93;4.97;;;10.40;99.90;;;;;;5052166;28;20382;-71
2023/06/03 00:11:17;;;;;;;8.55;5.65;;;10.30;99.90;;;;;;5051423;28;20025;-71
2023/06/03 00:13:42;;;;;;;9.15;5.85;;;10.30;99.90;;;;;;5051965;28;20067;-71
2023/06/03 00:16:08;;;;;;;10.38;5.70;;;10.20;99.90;;;;;;5052019;28;20438;-71
2023/06/03 00:18:34;;;;;;;9.13;5.55;;;10.30;99.90;;;;;;5052201;28;20024;-71
2023/06/03 00:21:01;;;;;;;7.07;5.45;;;10.20;99.90;;;;;;5051504;28;20181;-71
2023/06/03 00:23:27;;;;;;;10.50;6.40;;;10.10;99.90;;;;;;5052080;28;20366;-71
2023/06/03 00:25:53;;;;;;;10.90;5.70;;;10.10;99.90;;;;;;5051851;28;20086;-71
2023/06/03 00:28:19;;;;;;;12.20;6.47;;;10.10;99.90;;;;;;5051586;28;20479;-71
2023/06/03 00:30:45;;;;;;;10.57;6.03;;;10.10;99.90;;;;;;5051459;28;20040;-71
2023/06/03 00:33:11;;;;;;;11.48;6.40;;;10.20;99.90;;;;;;5049840;28;20033;-71
2023/06/03 00:35:37;;;;;;;7.32;6.10;;;10.20;99.90;;;;;;5050792;28;20052;-71
2023/06/03 00:38:03;;;;;;;11.27;6.00;;;10.30;99.90;;;;;;5051234;28;20029;-71
2023/06/03 00:40:28;;;;;;;10.52;5.70;;;10.30;99.90;;;;;;5051617;28;20033;-71
2023/06/03 00:42:54;;;;;;;10.25;6.35;;;10.30;99.90;;;;;;5050892;28;20064;-71
2023/06/03 00:45:20;;;;;;;10.23;6.30;;;10.30;99.90;;;;;;5050543;28;20033;-71
2023/06/03 00:47:46;;;;;;;9.85;6.65;;;10.30;99.90;;;;;;5051255;28;20115;-71
2023/06/03 00:50:14;;;;;;;13.05;6.00;;;10.30;99.90;;;;;;5050045;28;20033;-71
2023/06/03 00:52:40;;;;;;;6.78;5.35;;;10.20;99.90;;;;;;5051102;28;20028;-71
2023/06/03 00:55:06;;;;;;;7.80;5.25;;;10.10;99.90;;;;;;5049042;28;20051;-71
2023/06/03 00:57:33;;;;;;;12.82;6.60;;;10.10;99.90;;;;;;5049721;28;20029;-71
2023/06/03 00:59:58;;;;;;;10.77;6.15;;;10.10;99.90;;;;;;5050386;28;20029;-73
2023/06/03 01:02:24;;;;;;;7.90;5.95;;;10.10;99.90;;;;;;5050562;28;20081;-71
2023/06/03 01:04:51;;;;;;;10.50;5.60;;;10.10;99.90;;;;;;5050671;28;20021;-70
2023/06/03 01:07:21;;;;;;;8.38;6.00;;;10.10;99.90;;;;;;5050413;28;20029;-70
2023/06/03 01:10:06;;;;;;;9.95;6.38;;;10.10;99.90;;;;;;5050783;28;20039;-70
2023/06/03 01:12:51;;;;;;;10.02;6.30;;;10.10;99.90;;;;;;5049386;28;20033;-70
2023/06/03 01:15:20;;;;;;;9.45;6.00;;;10.10;99.90;;;;;;5049946;28;20025;-71
2023/06/03 01:17:49;;;;;;;9.13;6.43;;;10.10;99.90;;;;;;5050695;28;20351;-71
2023/06/03 01:20:16;;;;;;;8.52;5.72;;;10.10;99.90;;;;;;5049930;28;20040;-71
2023/06/03 01:22:49;;;;;;;10.63;6.25;;;10.10;99.90;;;;;;5050482;28;20029;-71
2023/06/03 01:25:15;;;;;;;7.35;5.97;;;10.00;99.90;;;;;;5050097;28;20029;-71
2023/06/03 01:27:45;;;;;;;6.90;6.13;;;10.10;99.90;;;;;;5050536;28;20053;-70
2023/06/03 01:30:14;;;;;;;9.38;5.95;;;10.10;99.90;;;;;;5049985;28;20024;-70
2023/06/03 01:32:42;;;;;;;9.13;5.93;;;10.10;99.90;;;;;;5049879;28;20064;-70
2023/06/03 01:35:09;;;;;;;7.97;5.95;;;10.10;99.90;;;;;;5049582;28;20373;-71
2023/06/03 01:37:35;;;;;;;5.90;5.25;;;10.00;99.90;;;;;;5050441;28;20172;-71
2023/06/03 01:40:03;;;;;;;7.03;5.00;;;9.90;99.90;;;;;;5048870;28;20033;-74
2023/06/03 01:42:29;;;;;;;9.32;6.05;;;9.80;99.90;;;;;;5049983;28;20029;-70
2023/06/03 01:44:56;;;;;;;9.43;6.20;;;9.70;99.90;;;;;;5048658;28;20021;-71
2023/06/03 01:47:23;;;;;;;8.52;5.30;;;9.70;99.90;;;;;;5049898;28;20470;-72
2023/06/03 01:49:48;;;;;;;7.28;5.90;;;9.70;99.90;;;;;;5050131;28;20123;-72
2023/06/03 01:52:14;;;;;;;10.63;5.28;;;9.60;99.90;;;;;;5049450;28;20087;-72
2023/06/03 01:54:40;;;;;;;8.80;6.35;;;9.60;99.90;;;;;;5049999;28;20029;-72
2023/06/03 01:57:06;;;;;;;7.18;5.88;;;9.60;99.90;;;;;;5049213;28;20029;-72
2023/06/03 01:59:32;;;;;;;8.45;6.32;;;9.50;99.90;;;;;;5048330;28;20032;-72
2023/06/03 02:01:59;;;;;;;10.57;6.43;;;9.60;99.90;;;;;;5049797;28;20433;-72
2023/06/03 02:04:26;;;;;;;9.02;6.25;;;9.60;99.90;;;;;;5049197;28;20086;-73
2023/06/03 02:06:56;;;;;;;12.13;6.82;;;9.60;99.90;;;;;;5049765;28;20025;-72
2023/06/03 02:09:27;;;;;;;8.07;6.47;;;9.60;99.90;;;;;;5049651;28;20025;-71
2023/06/03 02:11:56;;;;;;;12.18;6.70;;;9.60;99.90;;;;;;5050053;28;20162;-72
2023/06/03 02:14:22;;;;;;;10.20;6.28;;;9.50;99.90;;;;;;5049107;28;20059;-72
2023/06/03 02:16:48;;;;;;;12.45;7.85;;;9.50;99.90;;;;;;5049517;28;20033;-72
2023/06/03 02:19:17;;;;;;;12.60;7.32;;;9.40;99.90;;;;;;5049243;28;20033;-72
2023/06/03 02:21:44;;;;;;;8.85;6.50;;;9.40;99.90;;;;;;5049300;28;20030;-71
2023/06/03 02:24:10;;;;;;;8.00;6.40;;;9.30;99.90;;;;;;5049687;28;20028;-72
2023/06/03 02:26:39;;;;;;;7.70;5.85;;;9.30;99.90;;;;;;5049896;28;20128;-72
2023/06/03 02:29:06;;;;;;;9.93;6.32;;;9.30;99.90;;;;;;5049033;28;20024;-75
2023/06/03 02:31:32;;;;;;;9.63;6.20;;;9.20;99.90;;;;;;5049851;28;20036;-72
2023/06/03 02:33:58;;;;;;;8.73;6.43;;;9.20;99.90;;;;;;5049579;28;20110;-71
2023/06/03 02:36:24;;;;;;;8.48;5.70;;;9.10;99.90;;;;;;5048980;28;20083;-72
2023/06/03 02:38:50;;;;;;;11.88;7.15;;;9.10;99.90;;;;;;5049845;28;20079;-71
2023/06/03 02:41:16;;;;;;;13.07;8.20;;;9.10;99.90;;;;;;5049280;28;20036;-72
2023/06/03 02:43:42;;;;;;;10.55;7.18;;;9.10;99.90;;;;;;5049685;28;20033;-71
2023/06/03 02:46:08;;;;;;;11.63;6.97;;;9.10;99.90;;;;;;5049129;28;20036;-73
2023/06/03 02:48:34;;;;;;;7.75;6.55;;;9.10;99.90;;;;;;5049772;28;20045;-72
2023/06/03 02:51:00;;;;;;;9.52;7.07;;;9.10;99.90;;;;;;5049937;28;20537;-72
2023/06/03 02:53:27;;;;;;;10.70;7.20;;;9.10;99.90;;;;;;5049237;28;20045;-71
2023/06/03 02:55:52;;;;;;;11.02;7.45;;;9.10;99.90;;;;;;5049723;28;20021;-71
2023/06/03 02:58:19;;;;;;;8.25;6.10;;;9.00;99.90;;;;;;5049496;28;20075;-72
2023/06/03 03:00:44;;;;;;;8.35;7.00;;;9.00;99.90;;;;;;5049864;28;20048;-72
2023/06/03 03:03:10;;;;;;;11.23;7.07;;;9.00;99.90;;;;;;5049509;28;20418;-72
2023/06/03 03:05:36;;;;;;;17.38;8.50;;;8.90;99.90;;;;;;5049753;28;20025;-72
2023/06/03 03:08:03;;;;;;;12.73;7.80;;;8.90;99.90;;;;;;5049671;28;20036;-71
2023/06/03 03:10:29;;;;;;;13.48;8.38;;;9.00;99.90;;;;;;5049248;28;20025;-72
2023/06/03 03:12:55;;;;;;;9.82;7.65;;;9.00;99.90;;;;;;5049621;28;20031;-71
2023/06/03 03:15:21;;;;;;;11.80;7.70;;;8.90;99.90;;;;;;5052087;28;20378;-71
2023/06/03 03:17:47;;;;;;;10.23;7.28;;;8.90;99.90;;;;;;5052793;28;20025;-72
2023/06/03 03:20:12;;;;;;;10.00;7.10;;;8.90;99.90;;;;;;5052569;28;20104;-71
2023/06/03 03:22:44;;;;;;;13.43;7.78;;;8.90;99.90;;;;;;5053209;28;20025;-71
2023/06/03 03:25:11;;;;;;;11.45;7.43;;;9.00;99.90;;;;;;5052501;28;20073;-74
2023/06/03 03:27:37;;;;;;;9.25;7.47;;;9.00;99.90;;;;;;5052510;28;20072;-71
2023/06/03 03:30:04;;;;;;;9.95;7.45;;;9.00;99.90;;;;;;5052886;28;20033;-71
2023/06/03 03:32:32;;;;;;;12.70;8.00;;;8.90;99.90;;;;;;5052391;28;20391;-71
2023/06/03 03:35:21;;;;;;;13.55;8.25;;;8.80;99.90;;;;;;5053025;28;20029;-72
2023/06/03 03:37:49;;;;;;;8.82;6.97;;;8.90;99.90;;;;;;5052664;28;20066;-71
2023/06/03 03:40:15;;;;;;;11.57;7.47;;;8.80;99.90;;;;;;5052484;28;20073;-71
2023/06/03 03:42:41;;;;;;;12.40;7.18;;;8.80;99.90;;;;;;5052262;28;20088;-71
2023/06/03 03:45:16;;;;;;;9.18;6.97;;;8.80;99.90;;;;;;5052772;28;20079;-71
2023/06/03 03:47:42;;;;;;;9.13;7.25;;;8.70;99.90;;;;;;5052156;28;20490;-71
2023/06/03 03:50:35;;;;;;;9.50;7.57;;;8.80;99.90;;;;;;5052584;28;20075;-71
2023/06/03 03:53:04;;;;;;;9.70;7.30;;;8.70;99.90;;;;;;5050802;28;20033;-71
2023/06/03 03:55:30;;;;;;;10.52;7.80;;;8.70;99.90;;;;;;5051910;28;20028;-71
2023/06/03 03:57:56;;;;;;;9.13;7.10;;;8.80;99.90;;;;;;5052118;28;20017;-71
2023/06/03 04:00:22;;;;;;;12.27;8.05;;;8.70;99.90;;;;;;5051371;28;20065;-72
2023/06/03 04:02:53;;;;;;;10.85;7.28;;;8.70;99.90;;;;;;5052122;28;20056;-71
2023/06/03 04:05:22;;;;;;;10.73;7.47;;;8.60;99.90;;;;;;5050421;28;20458;-71
2023/06/03 04:07:49;;;;;;;16.80;8.43;;;8.60;99.90;;;;;;5052109;28;20074;-71
2023/06/03 04:10:15;;;;;;;11.35;7.50;;;8.60;99.90;;;;;;5051398;28;20442;-72
2023/06/03 04:12:41;;;;;;;11.07;6.88;;;8.50;99.90;;;;;;5052085;28;20029;-71
2023/06/03 04:15:08;;;;;;;11.90;7.57;;;8.50;99.90;;;;;;5052298;28;20052;-71
2023/06/03 04:17:37;;;;;;;9.45;7.05;;;8.50;99.90;;;;;;5051414;28;20021;-71
2023/06/03 04:20:19;;;;;;;13.23;8.57;;;8.50;99.90;;;;;;5051194;28;20454;-71
2023/06/03 04:22:45;;;;;;;13.30;7.32;;;8.50;99.90;;;;;;5051531;28;20513;-71
2023/06/03 04:25:11;;;;;;;11.48;7.28;;;8.50;99.90;;;;;;5051133;28;20029;-72
2023/06/03 04:27:37;;;;;;;15.52;8.52;;;8.50;99.90;;;;;;5050833;28;20060;-71
2023/06/03 04:30:04;;;;;;;13.32;8.30;;;8.60;99.90;;;;;;5050545;28;20029;-71
2023/06/03 04:32:30;;;;;;;11.90;9.02;;;8.60;99.90;;;;;;5051472;28;20029;-72
2023/06/03 04:34:55;;;;;;;15.20;8.15;;;8.60;99.90;;;;;;5051795;28;20029;-71
2023/06/03 04:37:23;;;;;;;11.77;7.57;;;8.70;99.90;;;;;;5051165;28;20055;-71
2023/06/03 04:39:48;;;;;;;13.07;7.05;;;8.70;99.90;;;;;;5051923;28;20032;-71
2023/06/03 04:42:15;;;;;;;12.07;7.55;;;8.70;99.90;;;;;;5051004;28;20021;-74
2023/06/03 04:44:42;;;;;;;10.63;7.18;;;8.80;99.90;;;;;;5051511;28;20489;-71
2023/06/03 04:47:12;;;;;;;13.07;7.97;;;8.80;99.90;;;;;;5051392;28;20060;-72
2023/06/03 04:49:38;;;;;;;13.35;7.35;;;8.80;99.90;;;;;;5051115;28;20039;-71
2023/06/03 04:52:09;;;;;;;9.02;7.60;;;8.90;99.90;;;;;;5051308;28;20025;-71
2023/06/03 04:54:40;;;;;;;10.30;7.28;;;8.90;99.90;;;;;;5049756;28;20028;-71
2023/06/03 04:57:06;;;;;;;11.35;7.32;;;9.10;99.90;;;;;;5051348;28;20079;-71
2023/06/03 04:59:32;;;;;;;11.18;7.13;;;9.20;99.90;;;;;;5050064;28;20116;-71
2023/06/03 05:01:58;;;;;;;9.75;7.30;;;9.30;99.90;;;;;;5051297;28;20025;-71
2023/06/03 05:04:29;;;;;;;9.88;7.15;;;9.50;99.90;;;;;;5050455;28;20033;-72
2023/06/03 05:06:55;;;;;;;10.50;6.75;;;9.60;99.90;;;;;;5051073;28;20033;-71
2023/06/03 05:09:22;;;;;;;12.57;7.45;;;9.70;99.90;;;;;;5050319;28;20048;-72
2023/06/03 05:11:47;;;;;;;10.52;6.93;;;9.90;99.90;;;;;;5050980;28;20505;-72
2023/06/03 05:14:13;;;;;;;10.73;7.10;;;10.10;99.90;;;;;;5050747;28;20104;-71
2023/06/03 05:16:39;;;;;;;8.38;6.45;;;10.20;99.90;;;;;;5050509;28;20421;-72
2023/06/03 05:19:05;;;;;;;10.38;6.85;;;10.30;99.90;;;;;;5050479;28;20358;-72
2023/06/03 05:21:30;;;;;;;9.32;7.28;;;10.40;99.90;;;;;;5050164;28;20052;-72
2023/06/03 05:23:56;;;;;;;8.77;6.70;;;10.50;99.90;;;;;;5050671;28;20082;-72
2023/06/03 05:26:22;;;;;;;8.93;5.80;;;10.60;99.90;;;;;;5048293;28;20053;-70
2023/06/03 05:28:48;;;;;;;8.98;6.65;;;10.80;99.90;;;;;;5050583;28;20059;-70
2023/06/03 05:31:14;;;;;;;9.65;6.53;;;10.90;99.90;;;;;;5050674;28;20025;-70
2023/06/03 05:33:41;;;;;;;7.75;6.25;;;11.00;99.90;;;;;;5050142;28;20082;-70
2023/06/03 05:36:08;;;;;;;9.13;6.60;;;11.10;99.90;;;;;;5050496;28;20175;-70
2023/06/03 05:38:34;;;;;;;12.05;6.68;;;11.10;99.90;;;;;;5049401;28;20029;-70
2023/06/03 05:41:02;;;;;;;8.70;6.55;;;11.10;99.90;;;;;;5050884;28;20076;-70
2023/06/03 05:43:28;;;;;;;9.38;6.70;;;11.20;99.90;;;;;;5049600;28;20362;-71
2023/06/03 05:45:54;;;;;;;9.68;7.50;;;11.20;99.90;;;;;;5050586;28;20025;-71
2023/06/03 05:48:20;;;;;;;7.55;5.78;;;11.30;99.90;;;;;;5050123;28;20029;-71
2023/06/03 05:50:50;;;;;;;7.70;6.43;;;11.50;99.90;;;;;;5050401;28;20136;-71
2023/06/03 05:53:20;;;;;;;7.32;6.38;;;11.70;99.90;;;;;;5050441;28;20021;-70
2023/06/03 05:55:50;;;;;;;8.02;5.70;;;11.80;99.90;;;;;;5050291;28;20052;-70
2023/06/03 05:58:17;;;;;;;7.63;6.13;;;12.00;99.90;;;;;;5050394;28;20029;-71
2023/06/03 06:00:43;;;;;;;9.10;6.88;;;12.10;99.90;;;;;;5049980;28;20129;-71
2023/06/03 06:03:09;;;;;;;11.85;6.68;;;12.30;99.90;;;;;;5050070;28;20542;-71
2023/06/03 06:05:34;;;;;;;6.47;5.80;;;12.40;99.90;;;;;;5049765;28;20060;-71
2023/06/03 06:08:00;;;;;;;8.90;6.38;;;12.50;99.90;;;;;;5050254;28;20045;-70
2023/06/03 06:10:26;;;;;;;11.05;6.25;;;12.60;99.90;;;;;;5049256;28;20082;-71
2023/06/03 06:12:52;;;;;;;9.32;6.28;;;12.70;99.90;;;;;;5050426;28;20079;-71
2023/06/03 06:15:17;;;;;;;11.25;6.50;;;12.90;99.90;;;;;;5050224;28;20071;-72
2023/06/03 06:17:43;;;;;;;9.30;6.57;;;13.00;99.90;;;;;;5049478;28;20112;-71
2023/06/03 06:20:13;;;;;;;10.05;6.32;;;13.10;99.90;;;;;;5049877;28;20059;-71
2023/06/03 06:22:38;;;;;;;8.55;7.03;;;13.20;99.90;;;;;;5049472;28;20201;-71
2023/06/03 06:25:05;;;;;;;10.02;7.25;;;13.40;99.90;;;;;;5049866;28;20487;-71
2023/06/03 06:27:31;;;;;;;12.48;6.90;;;13.60;99.90;;;;;;5049225;28;20049;-71
2023/06/03 06:29:58;;;;;;;12.25;7.68;;;13.70;99.90;;;;;;5049885;28;20085;-71
2023/06/03 06:32:25;;;;;;;13.82;7.35;;;13.90;99.90;;;;;;5049325;28;20025;-71
2023/06/03 06:34:51;;;;;;;12.30;7.10;;;14.10;99.90;;;;;;5049830;28;20071;-71
2023/06/03 06:37:21;;;;;;;12.32;7.55;;;14.20;99.90;;;;;;5049558;28;20052;-71
2023/06/03 06:39:48;;;;;;;12.80;7.60;;;14.30;99.90;;;;;;5049473;28;20037;-71
2023/06/03 06:42:31;;;;;;;9.85;7.07;;;14.40;99.90;;;;;;5049376;28;20086;-71
2023/06/03 06:44:57;;;;;;;11.63;6.43;;;14.60;99.90;;;;;;5048937;28;20388;-71
2023/06/03 06:47:27;;;;;;;8.00;5.97;;;14.70;99.90;;;;;;5048507;28;20025;-72
2023/06/03 06:49:56;;;;;;;8.23;5.70;;;14.80;99.90;;;;;;5051978;28;20454;-71
2023/06/03 06:52:23;;;;;;;13.43;7.68;;;14.90;99.90;;;;;;5052770;28;20029;-74
2023/06/03 06:54:49;;;;;;;8.07;5.25;;;15.10;99.90;;;;;;5053090;28;20025;-71
2023/06/03 06:57:23;;;;;;;7.80;5.55;;;15.20;99.90;;;;;;5053588;28;20025;-71
2023/06/03 06:59:53;;;;;;;13.75;6.57;;;15.40;99.90;;;;;;5052736;28;20033;-72
2023/06/03 07:02:21;;;;;;;9.50;5.80;;;15.60;99.90;;;;;;5053317;28;20099;-70
2023/06/03 07:04:49;;;;;;;12.35;5.53;;;15.70;99.90;;;;;;5052936;28;20021;-72
2023/06/03 07:07:15;;;;;;;12.35;6.80;;;15.90;99.90;;;;;;5053076;28;20025;-72
2023/06/03 07:09:41;;;;;;;13.98;5.88;;;16.00;99.90;;;;;;5052534;28;20059;-72
2023/06/03 07:12:08;;;;;;;8.25;5.45;;;16.10;99.90;;;;;;5052879;28;20029;-71
2023/06/03 07:14:34;;;;;;;11.95;6.43;;;16.30;99.90;;;;;;5052436;28;20040;-72
2023/06/03 07:17:00;;;;;;;10.35;5.55;;;16.40;99.90;;;;;;5053097;28;20017;-72
2023/06/03 07:19:31;;;;;;;10.85;5.03;;;16.50;99.90;;;;;;5052054;28;20409;-72
2023/06/03 07:21:57;;;;;;;11.02;5.55;;;16.50;99.90;;;;;;5053124;28;20037;-72
2023/06/03 07:24:23;;;;;;;12.40;5.25;;;16.40;99.90;;;;;;5052302;28;20087;-74
2023/06/03 07:26:48;;;;;;;14.90;6.05;;;16.60;99.90;;;;;;5051799;28;20402;-72
2023/06/03 07:29:15;;;;;;;11.00;5.20;;;16.60;99.90;;;;;;5052653;28;20032;-72
2023/06/03 07:31:41;;;;;;;11.95;4.63;;;16.70;99.90;;;;;;5051850;28;20513;-72
2023/06/03 07:34:08;;;;;;;9.93;4.05;;;16.90;99.90;;;;;;5052067;28;20308;-71
2023/06/03 07:36:34;;;;;;;10.43;4.00;;;17.00;99.90;;;;;;5051895;28;20040;-72
2023/06/03 07:39:06;;;;;;;12.02;4.55;;;17.00;99.90;;;;;;5052552;28;20036;-72
2023/06/03 07:41:35;;;;;;;9.10;3.95;;;17.20;99.90;;;;;;5052019;28;20104;-72
2023/06/03 07:44:08;;;;;;;18.27;4.57;;;17.30;99.90;;;;;;5052748;28;20036;-70
2023/06/03 07:46:45;;;;;;;13.27;4.28;;;17.40;99.90;;;;;;5050448;28;20021;-71
2023/06/03 07:49:12;;;;;;;10.57;3.70;;;17.60;99.90;;;;;;5051657;28;20033;-71
2023/06/03 07:51:40;;;;;;;10.95;4.22;;;17.50;99.90;;;;;;5052163;28;20021;-71
2023/06/03 07:54:07;;;;;;;12.05;3.75;;;17.70;99.90;;;;;;5051190;28;20333;-71
2023/06/03 07:56:33;;;;;;;13.15;3.63;;;17.70;99.90;;;;;;5051778;28;20462;-72
2023/06/03 07:59:00;;;;;;;15.90;4.97;;;18.00;99.90;;;;;;5052508;28;20454;-71
2023/06/03 08:01:26;;;;;;;15.75;4.18;;;17.90;99.90;;;;;;5051951;28;20037;-74
2023/06/03 08:03:52;;;;;;;12.82;4.00;;;18.00;99.90;;;;;;5052351;28;20067;-71
2023/06/03 08:06:22;;;;;;;9.35;3.70;;;17.90;99.90;;;;;;5052191;28;20463;-72
2023/06/03 08:08:48;;;;;;;13.23;3.88;;;18.00;99.90;;;;;;5052165;28;20107;-72
2023/06/03 08:11:13;;;;;;;11.05;3.88;;;18.10;99.90;;;;;;5051287;28;20033;-72
2023/06/03 08:13:39;;;;;;;12.13;3.60;;;18.10;99.90;;;;;;5051934;28;20036;-72
2023/06/03 08:16:05;;;;;;;9.15;3.53;;;18.20;99.90;;;;;;5052264;28;20121;-72
2023/06/03 08:18:54;;;;;;;10.10;3.85;;;18.20;99.90;;;;;;5051701;28;20104;-73
2023/06/03 08:21:28;;;;;;;12.95;3.90;;;18.30;99.90;;;;;;5052202;28;20044;-72
2023/06/03 08:23:53;;;;;;;14.70;3.58;;;18.40;99.90;;;;;;5051796;28;20044;-72
2023/06/03 08:26:20;;;;;;;7.60;3.58;;;18.60;99.90;;;;;;5051963;28;20405;-73
2023/06/03 08:28:46;;;;;;;12.00;3.40;;;18.60;99.90;;;;;;5051248;28;20457;-73
2023/06/03 08:31:13;;;;;;;11.02;4.38;;;18.70;99.90;;;;;;5052058;28;20029;-72
2023/06/03 08:33:38;;;;;;;9.18;3.80;;;18.70;99.90;;;;;;5051838;28;20032;-73
2023/06/03 08:36:04;;;;;;;8.73;3.40;;;18.70;99.90;;;;;;5052235;28;20032;-72
2023/06/03 08:38:31;;;;;;;9.57;3.72;;;18.60;99.90;;;;;;5050023;28;20516;-73
2023/06/03 08:40:57;;;;;;;9.48;3.55;;;18.60;99.90;;;;;;5051824;28;20029;-72
2023/06/03 08:43:32;;;;;;;10.73;3.67;;;18.80;99.90;;;;;;5051837;28;20112;-72
2023/06/03 08:46:25;;;;;;;11.02;3.80;;;18.80;99.90;;;;;;5051544;28;20072;-72
2023/06/03 08:49:07;;;;;;;8.52;3.63;;;18.80;99.90;;;;;;5049978;28;20482;-73
2023/06/03 08:51:42;;;;;;;9.15;3.80;;;18.70;99.90;;;;;;5049191;28;20033;-73
2023/06/03 08:54:13;;;;;;;12.00;3.47;;;18.70;99.90;;;;;;5050258;28;20093;-72
2023/06/03 08:56:52;;;;;;;8.27;3.40;;;18.90;99.90;;;;;;5050796;28;20025;-73
2023/06/03 08:59:21;;;;;;;14.73;3.65;;;18.80;99.90;;;;;;5051705;28;20021;-72
2023/06/03 09:01:51;;;;;;;7.35;3.13;;;18.90;99.90;;;;;;5050521;28;20075;-72
2023/06/03 09:04:17;;;;;;;9.30;3.53;;;18.90;99.90;;;;;;5051252;28;20021;-72
2023/06/03 09:06:44;;;;;;;9.65;3.65;;;18.80;99.90;;;;;;5050498;28;20155;-73
2023/06/03 09:09:12;;;;;;;9.48;3.80;;;18.80;99.90;;;;;;5051111;28;20051;-71
2023/06/03 09:11:39;;;;;;;9.40;3.40;;;18.90;99.90;;;;;;5049164;28;20098;-73
2023/06/03 09:14:05;;;;;;;10.57;3.60;;;18.90;99.90;;;;;;5051136;28;20025;-72
2023/06/03 09:16:35;;;;;;;7.47;3.25;;;18.80;99.90;;;;;;5049374;28;20032;-75
2023/06/03 09:19:01;;;;;;;14.57;3.58;;;18.90;99.90;;;;;;5049766;28;20385;-71
2023/06/03 09:21:27;;;;;;;10.60;3.60;;;18.80;99.90;;;;;;5049872;28;20055;-73
2023/06/03 09:23:53;;;;;;;11.25;3.88;;;18.70;99.90;;;;;;5049569;28;20036;-72
2023/06/03 09:26:18;;;;;;;10.07;3.55;;;18.60;99.90;;;;;;5049713;28;20045;-74
2023/06/03 09:28:48;;;;;;;11.93;3.50;;;18.80;99.90;;;;;;5049559;28;20051;-73
2023/06/03 09:31:14;;;;;;;8.63;3.28;;;18.90;99.90;;;;;;5050075;28;20060;-73
2023/06/03 09:33:43;;;;;;;6.53;2.80;;;18.80;99.90;;;;;;5049537;28;20088;-73
2023/06/03 09:36:13;;;;;;;9.82;3.13;;;18.80;99.90;;;;;;5049558;28;20378;-73
2023/06/03 09:38:49;;;;;;;13.02;3.45;;;18.70;99.90;;;;;;5049374;28;20091;-73
2023/06/03 09:41:17;;;;;;;8.55;3.10;;;18.70;99.90;;;;;;5050113;28;20275;-73
2023/06/03 09:44:06;;;;;;;7.90;2.95;;;18.80;99.90;;;;;;5049077;28;20506;-73
2023/06/03 09:46:33;;;;;;;5.60;2.75;;;18.70;99.90;;;;;;5048260;28;20033;-73
2023/06/03 09:49:21;;;;;;;10.02;2.92;;;18.80;99.90;;;;;;5049679;28;20025;-71
2023/06/03 09:51:49;;;;;;;8.07;2.65;;;18.80;99.90;;;;;;5048684;28;20114;-72
2023/06/03 09:54:24;;;;;;;14.00;3.22;;;18.80;99.90;;;;;;5049731;28;20053;-71
2023/06/03 09:56:51;;;;;;;12.18;2.90;;;18.90;99.90;;;;;;5049205;28;20031;-71
2023/06/03 09:59:25;;;;;;;10.18;2.95;;;19.10;99.90;;;;;;5049358;28;20433;-70
2023/06/03 10:01:53;;;;;;;5.40;2.45;;;19.30;99.90;;;;;;5049695;28;20028;-71
2023/06/03 10:04:41;;;;;;;9.15;3.00;;;19.40;99.90;;;;;;5048992;28;20415;-72
2023/06/03 10:07:10;;;;;;;9.50;3.03;;;19.10;99.90;;;;;;5049174;28;20100;-71
2023/06/03 10:09:37;;;;;;;10.45;3.10;;;19.30;99.90;;;;;;5049295;28;20458;-72
2023/06/03 10:12:04;;;;;;;8.63;3.15;;;19.40;99.90;;;;;;5049227;28;20029;-71
2023/06/03 10:14:30;;;;;;;8.27;3.22;;;19.60;99.90;;;;;;5049033;28;20086;-71
2023/06/03 10:17:09;;;;;;;9.13;2.78;;;19.60;99.90;;;;;;5048745;28;20120;-71
2023/06/03 10:19:40;;;;;;;8.73;2.85;;;19.60;99.90;;;;;;5048469;28;20478;-73
2023/06/03 10:22:07;;;;;;;9.02;2.88;;;19.60;99.90;;;;;;5049478;28;20091;-71
2023/06/03 10:24:42;;;;;;;6.18;2.60;;;19.60;99.90;;;;;;5050910;28;20025;-71
2023/06/03 10:27:09;;;;;;;14.95;2.75;;;19.40;99.90;;;;;;5053638;28;20045;-71
2023/06/03 10:29:35;;;;;;;7.65;2.55;;;19.50;99.90;;;;;;5054148;28;20078;-74
2023/06/03 10:32:02;;;;;;;8.65;2.30;;;19.60;99.90;;;;;;5053831;28;20040;-72
2023/06/03 10:34:29;;;;;;;8.23;2.80;;;19.60;99.90;;;;;;5052720;28;20408;-72
2023/06/03 10:37:01;;;;;;;7.28;2.30;;;19.50;99.90;;;;;;5053142;28;20037;-72
2023/06/03 10:39:28;;;;;;;8.33;2.23;;;19.50;99.90;;;;;;5052256;28;20025;-72
2023/06/03 10:41:57;;;;;;;10.52;2.60;;;19.50;99.90;;;;;;5053686;28;20426;-72
2023/06/03 10:44:24;;;;;;;8.02;2.88;;;19.50;99.90;;;;;;5053328;28;20025;-72
2023/06/03 10:47:01;;;;;;;8.35;2.38;;;19.50;99.90;;;;;;5051816;28;20025;-72
2023/06/03 10:49:34;;;;;;;7.13;2.28;;;19.40;99.90;;;;;;5053680;28;20025;-72
2023/06/03 10:52:22;;;;;;;5.65;2.30;;;19.40;99.90;;;;;;5052996;28;20033;-72
2023/06/03 10:54:59;;;;;;;5.47;2.10;;;19.30;99.90;;;;;;5052432;28;20037;-72
2023/06/03 10:57:36;;;;;;;5.95;2.47;;;19.40;99.90;;;;;;5052971;28;20513;-72
2023/06/03 11:00:04;;;;;;;8.93;2.17;;;19.40;99.90;;;;;;5052590;28;20044;-71
2023/06/03 11:03:03;;;;;;;4.72;1.90;;;19.20;99.90;;;;;;5051390;28;20067;-71
2023/06/03 11:05:28;;;;;;;3.17;1.90;;;19.00;99.90;;;;;;5052936;28;20017;-72
2023/06/03 11:07:54;;;;;;;5.68;1.80;;;19.10;99.90;;;;;;5052265;28;20040;-72
2023/06/03 11:10:40;;;;;;;7.03;2.47;;;18.90;99.90;;;;;;5052928;28;20036;-73
2023/06/03 11:13:06;;;;;;;6.43;2.90;;;18.90;99.90;;;;;;5052822;28;20457;-71
2023/06/03 11:15:57;;;;;;;6.07;2.42;;;18.90;99.90;;;;;;5053077;28;20029;-72
2023/06/03 11:18:23;;;;;;;7.28;2.53;;;19.20;99.90;;;;;;5052661;28;20411;-73
2023/06/03 11:20:48;;;;;;;11.32;2.60;;;19.30;99.90;;;;;;5051986;28;20056;-72
2023/06/03 11:23:41;;;;;;;4.57;2.25;;;19.40;99.90;;;;;;5052191;28;20501;-72
2023/06/03 11:26:29;;;;;;;7.72;1.83;;;19.50;99.90;;;;;;5049178;28;20116;-72
2023/06/03 11:28:55;;;;;;;5.00;1.88;;;19.10;99.90;;;;;;5051534;28;20029;-73
2023/06/03 11:31:21;;;;;;;4.90;1.95;;;19.10;99.90;;;;;;5052244;28;20033;-73
2023/06/03 11:34:18;;;;;;;5.35;1.90;;;19.20;99.90;;;;;;5051239;28;20411;-74
2023/06/03 11:36:53;;;;;;;6.68;2.45;;;19.30;99.90;;;;;;5051586;28;20075;-72
2023/06/03 11:39:20;;;;;;;4.65;2.42;;;19.20;99.90;;;;;;5051991;28;20447;-73
2023/06/03 11:42:09;;;;;;;7.28;2.42;;;19.20;99.90;;;;;;5052210;28;20107;-72
2023/06/03 11:44:37;;;;;;;8.20;2.40;;;19.20;99.90;;;;;;5052099;28;20021;-73
2023/06/03 11:47:04;;;;;;;5.63;2.10;;;19.20;99.90;;;;;;5051894;28;20442;-73
2023/06/03 11:49:33;;;;;;;5.68;2.50;;;19.10;99.90;;;;;;5052535;28;20028;-73
2023/06/03 11:52:00;;;;;;;5.70;2.08;;;19.10;99.90;;;;;;5051660;28;20520;-73
2023/06/03 11:54:26;;;;;;;4.45;1.67;;;19.20;99.90;;;;;;5051996;28;20112;-72
2023/06/03 11:56:58;;;;;;;3.58;1.75;;;19.40;99.90;;;;;;5051024;28;20025;-73
2023/06/03 11:59:31;;;;;;;2.70;1.67;;;19.30;99.90;;;;;;5051598;28;20036;-72
2023/06/03 12:02:05;;;;;;;6.82;2.17;;;19.40;99.90;;;;;;5050734;28;20025;-72
2023/06/03 12:04:32;;;;;;;5.63;1.77;;;19.30;99.90;;;;;;5051810;28;20103;-73
2023/06/03 12:06:58;;;;;;;2.83;1.73;;;19.30;99.90;;;;;;5051238;28;20033;-73
2023/06/03 12:09:26;;;;;;;5.53;1.80;;;19.40;99.90;;;;;;5051327;28;20032;-72
2023/06/03 12:11:54;;;;;;;5.03;2.10;;;19.40;97.70;;;;;;5050948;28;20040;-73
2023/06/03 12:14:32;;;;;;;3.60;2.08;;;19.40;94.80;;;;;;5051212;28;20120;-73
2023/06/03 12:17:08;;;;;;;7.15;2.25;;;19.50;95.80;;;;;;5049334;28;20052;-73
2023/06/03 12:19:37;;;;;;;3.72;1.92;;;19.50;96.80;;;;;;5051529;28;20111;-72
2023/06/03 12:22:03;;;;;;;4.20;1.80;;;19.50;96.70;;;;;;5051300;28;20126;-72
2023/06/03 12:24:30;;;;;;;4.50;2.22;;;19.40;95.30;;;;;;5051456;28;20096;-73
2023/06/03 12:27:09;;;;;;;5.57;2.30;;;19.50;96.20;;;;;;5050705;28;20258;-72
2023/06/03 12:29:40;;;;;;;4.57;1.85;;;19.40;95.80;;;;;;5050917;28;20497;-72
2023/06/03 12:32:06;;;;;;;4.75;2.20;;;19.40;96.60;;;;;;5050555;28;20390;-73
2023/06/03 12:34:35;;;;;;;3.80;1.90;;;19.50;97.00;;;;;;5051193;28;20032;-73
2023/06/03 12:37:03;;;;;;;5.43;2.10;;;19.50;95.50;;;;;;5050739;28;20116;-73
2023/06/03 12:39:44;;;;;;;8.40;2.70;;;19.40;96.30;;;;;;5051190;28;20171;-73
2023/06/03 12:42:10;;;;;;;4.57;2.30;;;19.50;96.60;;;;;;5051157;28;20077;-73
2023/06/03 12:44:45;;;;;;;6.00;2.53;;;19.30;95.10;;;;;;5050877;28;20029;-73
2023/06/03 12:47:12;;;;;;;6.53;2.10;;;19.30;96.30;;;;;;5050303;28;20032;-73
2023/06/03 12:49:37;;;;;;;6.13;2.58;;;19.20;95.80;;;;;;5049910;28;20079;-72
2023/06/03 12:52:18;;;;;;;3.25;1.95;;;19.20;96.80;;;;;;5051111;28;20608;-70
2023/06/03 12:54:46;;;;;;;3.53;1.95;;;19.10;96.50;;;;;;5051179;28;20087;-74